Time;durP1;ratioP1;P1;durP2;ratioP2;P2;SDS_P1;SDS_P2;PMS_P1;PMS_P2;Temp;Humidity;BMP_temperature;BMP_pressure;BME280_temperature;BME280_humidity;BME280_pressure;Samples;Min_cycle;Max_cycle;Signal;HPM_P1;HPM_P2
2022/01/16 00:04:31;;;;;;;2.42;0.88;;;0.70;98.90;;;;;;20888830;28;20086;-53
2022/01/16 00:14:34;;;;;;;1.92;0.90;;;0.70;99.30;;;;;;20888642;28;20067;-53
2022/01/16 00:24:39;;;;;;;2.38;0.93;;;0.70;98.90;;;;;;20888218;28;20122;-55
2022/01/16 00:34:43;;;;;;;1.73;1.00;;;0.70;99.50;;;;;;20887359;28;20040;-53
2022/01/16 00:44:46;;;;;;;2.08;0.90;;;0.60;99.90;;;;;;20886705;28;20087;-51
2022/01/16 00:54:48;;;;;;;2.63;1.00;;;0.60;99.90;;;;;;20886240;28;20045;-53
2022/01/16 01:04:51;;;;;;;2.30;0.70;;;0.50;99.90;;;;;;20884442;28;20041;-51
2022/01/16 01:15:08;;;;;;;2.00;1.20;;;0.40;99.90;;;;;;20884241;28;20098;-52
2022/01/16 01:25:13;;;;;;;1.73;0.98;;;0.50;99.90;;;;;;20883384;28;20562;-56
2022/01/16 01:35:19;;;;;;;1.92;0.65;;;0.50;99.90;;;;;;20900888;28;20036;-52
2022/01/16 01:55:55;;;;;;;1.83;0.90;;;0.70;99.80;;;;;;20899439;28;20040;-52
2022/01/16 02:05:58;;;;;;;2.97;0.73;;;0.60;99.90;;;;;;20914928;28;20033;-55
2022/01/16 02:36:35;;;;;;;4.82;0.85;;;0.40;99.90;;;;;;20895746;28;20091;-53
2022/01/16 02:46:39;;;;;;;1.42;0.82;;;0.40;99.90;;;;;;20896313;28;20037;-52
2022/01/16 02:56:45;;;;;;;2.17;0.80;;;0.30;99.90;;;;;;20892627;28;20059;-57
2022/01/16 03:06:48;;;;;;;4.22;1.60;;;0.30;99.90;;;;;;20893595;28;20029;-52
2022/01/16 03:16:52;;;;;;;2.75;1.45;;;0.30;99.90;;;;;;20892921;28;20041;-53
2022/01/16 03:27:02;;;;;;;2.25;0.80;;;0.30;99.90;;;;;;20892021;28;20053;-51
2022/01/16 03:37:08;;;;;;;2.47;1.13;;;0.20;99.90;;;;;;20891163;28;20489;-53
2022/01/16 03:47:15;;;;;;;2.13;1.20;;;0.20;99.90;;;;;;20890704;28;20075;-51
2022/01/16 03:57:19;;;;;;;1.98;0.95;;;0.10;99.90;;;;;;20890038;28;20140;-54
2022/01/16 04:07:27;;;;;;;3.00;1.50;;;0.20;99.90;;;;;;20888773;28;20033;-52
2022/01/16 04:17:30;;;;;;;2.03;1.00;;;0.10;99.90;;;;;;20888081;28;20095;-53
2022/01/16 04:27:32;;;;;;;1.85;1.02;;;0.10;99.90;;;;;;20887387;28;20041;-51
2022/01/16 04:37:35;;;;;;;3.72;1.33;;;0.10;99.90;;;;;;20886337;28;20106;-52
2022/01/16 04:47:39;;;;;;;2.05;1.10;;;0.10;99.90;;;;;;20887282;28;20134;-52
2022/01/16 04:57:43;;;;;;;3.22;1.27;;;0.10;99.90;;;;;;20885269;28;20485;-52
2022/01/16 05:07:48;;;;;;;2.28;0.95;;;0.00;99.90;;;;;;20884312;28;20037;-57
2022/01/16 05:17:51;;;;;;;5.22;1.15;;;0.00;99.90;;;;;;20883083;28;20094;-53
2022/01/16 05:27:53;;;;;;;2.58;1.20;;;0.00;99.90;;;;;;20883083;28;20049;-52
2022/01/16 05:37:56;;;;;;;3.60;1.63;;;-0.10;99.90;;;;;;20883051;28;20059;-51
2022/01/16 05:47:59;;;;;;;2.22;1.42;;;0.10;99.90;;;;;;20882669;28;20404;-51
2022/01/16 05:58:06;;;;;;;3.85;1.60;;;0.10;99.90;;;;;;20882314;28;20033;-52
2022/01/16 06:08:12;;;;;;;3.63;1.40;;;0.00;99.90;;;;;;20898476;28;20033;-51
2022/01/16 06:18:14;;;;;;;3.38;1.40;;;-0.10;99.90;;;;;;20881242;28;20033;-53
2022/01/16 06:28:17;;;;;;;2.20;1.30;;;-0.20;99.90;;;;;;20882746;28;20134;-51
2022/01/16 06:38:20;;;;;;;5.30;1.75;;;-0.10;99.90;;;;;;20895678;28;20059;-52
2022/01/16 06:48:22;;;;;;;2.63;1.15;;;-0.20;99.90;;;;;;20894932;28;20095;-51
2022/01/16 06:58:26;;;;;;;3.33;1.50;;;0.00;99.90;;;;;;20894244;28;20063;-51
2022/01/16 07:08:30;;;;;;;3.95;1.60;;;0.00;99.90;;;;;;20893706;28;20082;-52
2022/01/16 07:18:32;;;;;;;3.15;1.67;;;0.10;99.90;;;;;;20893973;28;20115;-54
2022/01/16 07:28:35;;;;;;;3.75;1.23;;;0.20;99.90;;;;;;20892250;28;20057;-55
2022/01/16 07:38:38;;;;;;;1.95;0.90;;;0.30;99.90;;;;;;20891061;28;20036;-54
2022/01/16 07:48:41;;;;;;;3.53;1.60;;;0.60;99.90;;;;;;20889588;28;20033;-51
2022/01/16 07:58:44;;;;;;;2.72;1.58;;;1.10;99.90;;;;;;20889529;28;20126;-52
2022/01/16 08:08:47;;;;;;;4.13;1.50;;;1.80;99.90;;;;;;20888685;28;20090;-55
2022/01/16 08:18:52;;;;;;;4.10;1.80;;;2.50;99.90;;;;;;20888873;28;20045;-53
2022/01/16 08:28:54;;;;;;;3.75;1.77;;;3.20;99.40;;;;;;20886999;28;20052;-50
2022/01/16 08:38:57;;;;;;;4.20;1.80;;;3.80;98.70;;;;;;20885922;28;20048;-54
2022/01/16 08:49:01;;;;;;;3.65;1.70;;;4.60;97.60;;;;;;20885479;28;20484;-51
2022/01/16 08:59:04;;;;;;;1.67;0.93;;;5.30;95.70;;;;;;20884479;28;20389;-53
2022/01/16 09:09:06;;;;;;;3.08;1.30;;;5.90;94.20;;;;;;20884594;28;20474;-52
2022/01/16 09:19:10;;;;;;;1.80;1.00;;;6.60;93.20;;;;;;20883594;28;20041;-55
2022/01/16 09:29:12;;;;;;;2.50;1.02;;;7.20;92.50;;;;;;20883253;28;20057;-52
2022/01/16 09:39:15;;;;;;;2.53;1.10;;;7.50;91.40;;;;;;20882518;28;20041;-51
2022/01/16 09:49:18;;;;;;;2.53;1.20;;;7.80;90.50;;;;;;20882349;28;20504;-52
2022/01/16 09:59:22;;;;;;;2.28;1.20;;;8.00;90.20;;;;;;20882292;28;20045;-51
2022/01/16 10:09:24;;;;;;;3.03;1.40;;;8.20;91.00;;;;;;20893517;28;20033;-53
2022/01/16 10:19:30;;;;;;;2.92;1.40;;;8.50;88.90;;;;;;20897252;28;20058;-56
2022/01/16 10:29:39;;;;;;;2.55;1.20;;;8.60;87.50;;;;;;20896574;28;20110;-52
2022/01/16 10:40:14;;;;;;;1.40;0.88;;;8.80;86.50;;;;;;20912770;28;20095;-52
2022/01/16 10:50:20;;;;;;;1.33;0.80;;;9.00;88.20;;;;;;20895052;28;20033;-53
2022/01/16 11:00:23;;;;;;;1.95;0.90;;;9.50;86.40;;;;;;20893968;28;20098;-54
2022/01/16 11:10:28;;;;;;;2.00;1.30;;;9.60;86.50;;;;;;20892654;28;20033;-54
2022/01/16 11:20:35;;;;;;;0.80;0.60;;;9.70;86.30;;;;;;20880390;28;20107;-56
2022/01/16 11:30:42;;;;;;;1.52;0.90;;;9.80;82.30;;;;;;20889994;28;20061;-52
2022/01/16 11:40:46;;;;;;;3.55;1.27;;;9.70;83.70;;;;;;20891112;28;20170;-52
2022/01/16 11:50:49;;;;;;;4.18;1.63;;;9.80;84.10;;;;;;20890073;28;20079;-57
2022/01/16 12:00:53;;;;;;;3.28;1.58;;;9.90;83.20;;;;;;20890778;28;20033;-54
2022/01/16 12:10:57;;;;;;;4.30;2.05;;;10.10;84.80;;;;;;20888351;28;20037;-57
2022/01/16 12:20:59;;;;;;;4.43;1.60;;;10.00;85.70;;;;;;20887958;28;20059;-54
2022/01/16 12:31:14;;;;;;;3.08;1.85;;;10.10;86.00;;;;;;20890020;28;20053;-55
2022/01/16 12:41:21;;;;;;;3.10;1.58;;;10.00;82.80;;;;;;20903246;28;20530;-55
2022/01/16 12:51:28;;;;;;;4.18;2.30;;;9.90;82.90;;;;;;20901863;28;20093;-58
2022/01/16 13:01:32;;;;;;;4.47;2.70;;;10.00;84.10;;;;;;20901939;28;20083;-57
2022/01/16 13:11:39;;;;;;;9.40;2.40;;;10.00;84.10;;;;;;20902480;28;20558;-54
2022/01/16 13:32:11;;;;;;;4.70;2.63;;;8.80;87.30;;;;;;20900298;28;20041;-54
2022/01/16 13:42:18;;;;;;;4.43;2.55;;;8.20;88.60;;;;;;20914683;28;20501;-54
2022/01/16 13:52:26;;;;;;;5.20;3.25;;;7.60;90.00;;;;;;20926424;28;20076;-57
2022/01/16 14:02:30;;;;;;;8.05;3.50;;;7.10;91.20;;;;;;20925804;28;20106;-55
2022/01/16 14:12:33;;;;;;;7.28;4.00;;;6.70;91.90;;;;;;20925484;28;20079;-54
2022/01/16 14:22:35;;;;;;;9.15;4.65;;;6.30;92.70;;;;;;20925585;28;20079;-57
2022/01/16 14:32:41;;;;;;;7.22;4.38;;;5.80;93.70;;;;;;20925059;28;20053;-54
2022/01/16 14:42:46;;;;;;;7.35;3.97;;;5.30;94.10;;;;;;20924633;28;20037;-55
2022/01/16 14:52:49;;;;;;;9.80;4.65;;;5.00;95.00;;;;;;20918519;28;20082;-57
2022/01/16 15:02:52;;;;;;;14.63;5.05;;;4.70;95.20;;;;;;20910076;28;20029;-56
2022/01/16 15:12:58;;;;;;;9.88;4.88;;;4.50;95.70;;;;;;20909638;28;20067;-56
2022/01/16 15:23:00;;;;;;;9.10;5.35;;;4.30;96.10;;;;;;20908396;28;20115;-54
2022/01/16 15:33:03;;;;;;;7.03;4.20;;;3.80;97.80;;;;;;20892793;28;20110;-55
2022/01/16 15:43:08;;;;;;;7.85;3.70;;;3.30;98.10;;;;;;20890751;28;20095;-52
2022/01/16 15:53:11;;;;;;;7.40;4.22;;;2.80;98.80;;;;;;20891426;28;20059;-54
2022/01/16 16:03:15;;;;;;;6.03;3.03;;;2.40;99.90;;;;;;20889275;28;20095;-52
2022/01/16 16:13:17;;;;;;;5.15;2.60;;;2.20;99.90;;;;;;20888704;28;20033;-52
2022/01/16 16:23:20;;;;;;;3.70;2.08;;;2.20;99.70;;;;;;20888431;28;20079;-54
2022/01/16 16:33:24;;;;;;;7.10;2.28;;;2.10;99.90;;;;;;20887184;28;20099;-57
2022/01/16 16:43:27;;;;;;;3.30;1.67;;;1.80;99.80;;;;;;20886418;28;20037;-54
2022/01/16 16:53:31;;;;;;;3.45;1.92;;;1.60;99.80;;;;;;20885909;28;20037;-53
2022/01/16 17:03:33;;;;;;;4.32;1.83;;;1.40;99.90;;;;;;20884850;28;20554;-53
2022/01/16 17:13:37;;;;;;;4.00;2.03;;;1.30;99.90;;;;;;20884748;28;20130;-52
2022/01/16 17:23:39;;;;;;;3.90;1.95;;;1.20;99.90;;;;;;20883890;28;20045;-54
2022/01/16 17:33:42;;;;;;;3.53;1.80;;;1.10;99.90;;;;;;20884091;28;20417;-52
2022/01/16 17:43:48;;;;;;;3.55;1.67;;;1.00;99.90;;;;;;20883335;28;20385;-53
2022/01/16 17:53:52;;;;;;;5.53;2.35;;;1.00;99.90;;;;;;20882789;28;20412;-56
2022/01/16 18:03:55;;;;;;;5.95;2.83;;;1.10;99.90;;;;;;20882327;28;20435;-52
2022/01/16 18:14:00;;;;;;;12.32;4.82;;;1.10;99.90;;;;;;20881872;28;20071;-52
2022/01/16 18:24:04;;;;;;;9.95;4.63;;;1.20;99.90;;;;;;20883133;28;20079;-53
2022/01/16 18:34:09;;;;;;;3.63;1.45;;;1.30;99.90;;;;;;20896909;28;20033;-53
2022/01/16 18:44:15;;;;;;;3.58;1.13;;;1.40;99.90;;;;;;20898414;28;20365;-57
2022/01/16 18:54:18;;;;;;;4.05;1.75;;;1.30;99.40;;;;;;20895598;28;20098;-53
2022/01/16 19:04:20;;;;;;;3.67;1.70;;;2.40;97.20;;;;;;20895528;28;20041;-53
2022/01/16 19:14:24;;;;;;;3.97;1.83;;;2.90;96.00;;;;;;20894370;28;20041;-56
2022/01/16 19:24:32;;;;;;;3.10;1.10;;;3.20;94.80;;;;;;20892952;28;20049;-52
2022/01/16 19:34:34;;;;;;;2.10;0.82;;;3.60;93.70;;;;;;20891811;28;20099;-53
2022/01/16 19:44:37;;;;;;;0.93;0.43;;;3.50;93.80;;;;;;20891139;28;20067;-53
2022/01/16 19:54:41;;;;;;;0.82;0.30;;;3.60;91.80;;;;;;20890878;28;20099;-55
2022/01/16 20:04:45;;;;;;;0.77;0.25;;;4.40;85.70;;;;;;20904678;28;20441;-55
2022/01/16 20:14:55;;;;;;;0.65;0.30;;;4.70;78.70;;;;;;20905148;28;20033;-56
2022/01/16 20:24:58;;;;;;;1.42;0.60;;;4.70;77.30;;;;;;20888923;28;20111;-56
2022/01/16 20:35:01;;;;;;;1.50;0.47;;;4.70;75.90;;;;;;20731193;28;20050;-54
2022/01/16 20:45:05;;;;;;;0.95;0.38;;;4.50;73.50;;;;;;20714558;28;20046;-53
2022/01/16 20:55:10;;;;;;;0.63;0.28;;;4.50;70.40;;;;;;20713305;28;20147;-55
2022/01/16 21:05:14;;;;;;;0.60;0.20;;;4.40;69.80;;;;;;20713280;28;20060;-52
2022/01/16 21:15:21;;;;;;;0.40;0.20;;;4.20;70.90;;;;;;20804098;28;20045;-56
2022/01/16 21:25:24;;;;;;;0.35;0.20;;;3.80;70.50;;;;;;20883857;28;20049;-55
2022/01/16 21:35:26;;;;;;;0.52;0.22;;;3.70;70.90;;;;;;20884118;28;20029;-52
2022/01/16 21:45:29;;;;;;;0.70;0.10;;;3.30;70.00;;;;;;20884907;28;20530;-53
2022/01/16 21:55:34;;;;;;;0.60;0.25;;;3.20;70.40;;;;;;20882793;28;20037;-52
2022/01/16 22:05:37;;;;;;;0.60;0.20;;;2.80;72.90;;;;;;20895403;28;20033;-54
2022/01/16 22:15:39;;;;;;;0.70;0.10;;;2.40;71.60;;;;;;20898888;28;20417;-55
2022/01/16 22:25:43;;;;;;;0.35;0.10;;;2.30;74.50;;;;;;20897762;28;20049;-52
2022/01/16 22:35:47;;;;;;;0.55;0.30;;;2.00;71.40;;;;;;20913088;28;20052;-54
2022/01/16 22:45:55;;;;;;;0.50;0.20;;;2.00;73.80;;;;;;20863877;28;20025;-56
2022/01/16 22:55:59;;;;;;;0.20;0.10;;;1.80;75.30;;;;;;20895290;28;20041;-53
2022/01/16 23:06:04;;;;;;;0.30;0.10;;;1.40;77.60;;;;;;20894937;28;20393;-55
2022/01/16 23:16:07;;;;;;;0.10;0.00;;;1.30;76.00;;;;;;20892682;28;20516;-52
2022/01/16 23:26:12;;;;;;;0.75;0.10;;;1.20;78.50;;;;;;20892660;28;20123;-53
2022/01/16 23:36:14;;;;;;;0.30;0.10;;;1.20;76.00;;;;;;20892208;28;20033;-52
2022/01/16 23:46:20;;;;;;;0.93;0.10;;;1.10;76.60;;;;;;20891848;28;20087;-57
2022/01/16 23:56:23;;;;;;;0.05;0.00;;;1.10;75.50;;;;;;20890997;28;20538;-54
